KCVS/CVS METAR and TAF weather

Enter ICAO airport designator
Station Type Date Time Source
KCVS METAR 2020/09/23 19:58 UTC NOAA

KCVS 231958Z 00000KT 10SM CLR 30/06 A3006 RMK AO2A SLP122 T02950055 $


Station Type Date Time Source
KCVS Decoded METAR 2020/09/23 19:58 UTC NOAA

Cannon Air Force Base / Clovis, NM, United States (KCVS) 34-23N 103-19W
Sep 23, 2020 - 03:58 PM EDT / 2020.09.23 1958 UTC
Wind: Calm:0
Visibility: 10 mile(s):0
Sky conditions: clear
Temperature: 85.1 F (29.5 C)
Dew Point: 41.9 F (5.5 C)
Relative Humidity: 21%
Pressure (altimeter): 30.06 in. Hg (1017 hPa)
ob: KCVS 231958Z 00000KT 10SM CLR 30/06 A3006 RMK AO2A SLP122 T02950055
cycle: 20

Station Type Date Time Source
KCVS TAF 2020/09/23 18:03 UTC NOAA

TAF KCVS 231800Z 2318/2424 20010KT 9999 FEW200 QNH3004INS
BECMG 2400/2401 17008KT 9999 SCT110 QNH3007INS
BECMG 2404/2405 VRB06KT 9999 SKC QNH3013INS
BECMG 2411/2412 26008KT 9999 SKC QNH3015INS
BECMG 2415/2416 VRB06KT 9999 SKC QNH3003INS TX31/2321Z TN13/2412Z

Example: see airport list